Cypress Mill, Texas
Current Conditions -  °F | °C
As of 10:35 AM on Thursday 30 Oct 2014 (Local Time) from KDZB Reporting Station
Overcast Overcast  
Wind Chill: 66°   Ceiling: 1000
Heat Index: 66°   Visibility: 10mi
Dew Point: 60°   Wind: 5mph
Humidity: 82%   Direction: 150°SSE
Pressure: 30.18"   Gusts: NA
Location:  30.3215°N, 98.3242°W
Report Text: KDZB 301535Z AUTO 15004KT 10SM OVC010 19/16 A3018 RMK AO2 T01870156
Loading
Personal Weather Stations






























Interactive Weather Map
Tropical Storm Tracking
New forecast layout! Learn more

10-Day Weather Forecast

Advertisements
Track Severe Weather on mobile